sensor_id;sensor_type;location;lat;lon;timestamp;temperature;humidity
49829;DHT22;35723;51.194;5.112;2024-01-10T00:01:22;-2.10;99.90
49829;DHT22;35723;51.194;5.112;2024-01-10T00:03:52;-2.20;99.90
49829;DHT22;35723;51.194;5.112;2024-01-10T00:06:18;-2.20;99.90
49829;DHT22;35723;51.194;5.112;2024-01-10T00:08:44;-2.20;99.90
49829;DHT22;35723;51.194;5.112;2024-01-10T00:11:09;-2.40;99.90
49829;DHT22;35723;51.194;5.112;2024-01-10T00:13:35;-2.40;99.90
49829;DHT22;35723;51.194;5.112;2024-01-10T00:16:01;-2.40;99.90
49829;DHT22;35723;51.194;5.112;2024-01-10T00:18:26;-2.30;99.90
49829;DHT22;35723;51.194;5.112;2024-01-10T00:20:52;-2.30;99.90
49829;DHT22;35723;51.194;5.112;2024-01-10T00:23:21;-2.10;99.90
49829;DHT22;35723;51.194;5.112;2024-01-10T00:25:47;-2.40;99.90
49829;DHT22;35723;51.194;5.112;2024-01-10T00:28:13;-2.20;99.90
49829;DHT22;35723;51.194;5.112;2024-01-10T00:30:39;-2.40;99.90
49829;DHT22;35723;51.194;5.112;2024-01-10T00:33:05;-2.50;99.90
49829;DHT22;35723;51.194;5.112;2024-01-10T00:35:31;-2.50;99.90
49829;DHT22;35723;51.194;5.112;2024-01-10T00:37:57;-2.40;99.90
49829;DHT22;35723;51.194;5.112;2024-01-10T00:40:23;-2.50;99.90
49829;DHT22;35723;51.194;5.112;2024-01-10T00:42:49;-2.60;99.90
49829;DHT22;35723;51.194;5.112;2024-01-10T00:45:16;-2.90;99.90
49829;DHT22;35723;51.194;5.112;2024-01-10T00:47:42;-3.00;99.90
49829;DHT22;35723;51.194;5.112;2024-01-10T00:50:08;-3.00;99.90
49829;DHT22;35723;51.194;5.112;2024-01-10T00:52:34;-3.00;99.90
49829;DHT22;35723;51.194;5.112;2024-01-10T00:55:00;-2.90;99.90
49829;DHT22;35723;51.194;5.112;2024-01-10T00:57:25;-3.10;99.90
49829;DHT22;35723;51.194;5.112;2024-01-10T00:59:51;-3.10;99.90
49829;DHT22;35723;51.194;5.112;2024-01-10T01:02:17;-3.00;99.90
49829;DHT22;35723;51.194;5.112;2024-01-10T01:04:42;-2.80;99.90
49829;DHT22;35723;51.194;5.112;2024-01-10T01:07:08;-2.80;99.90
49829;DHT22;35723;51.194;5.112;2024-01-10T01:09:34;-2.70;99.90
49829;DHT22;35723;51.194;5.112;2024-01-10T01:11:59;-2.70;99.90
49829;DHT22;35723;51.194;5.112;2024-01-10T01:14:25;-2.70;99.90
49829;DHT22;35723;51.194;5.112;2024-01-10T01:16:53;-2.80;99.90
49829;DHT22;35723;51.194;5.112;2024-01-10T01:19:19;-3.00;99.90
49829;DHT22;35723;51.194;5.112;2024-01-10T01:21:44;-3.00;99.90
49829;DHT22;35723;51.194;5.112;2024-01-10T01:24:10;-2.90;99.90
49829;DHT22;35723;51.194;5.112;2024-01-10T01:26:36;-2.80;99.90
49829;DHT22;35723;51.194;5.112;2024-01-10T01:29:02;-2.70;99.90
49829;DHT22;35723;51.194;5.112;2024-01-10T01:31:28;-3.10;99.90
49829;DHT22;35723;51.194;5.112;2024-01-10T01:33:53;-3.00;99.90
49829;DHT22;35723;51.194;5.112;2024-01-10T01:36:19;-3.00;99.90
49829;DHT22;35723;51.194;5.112;2024-01-10T01:38:45;-2.90;99.90
49829;DHT22;35723;51.194;5.112;2024-01-10T01:41:11;-2.90;99.90
49829;DHT22;35723;51.194;5.112;2024-01-10T01:43:38;-3.00;99.90
49829;DHT22;35723;51.194;5.112;2024-01-10T01:46:03;-2.90;99.90
49829;DHT22;35723;51.194;5.112;2024-01-10T01:48:29;-3.10;99.90
49829;DHT22;35723;51.194;5.112;2024-01-10T01:50:57;-3.00;99.90
49829;DHT22;35723;51.194;5.112;2024-01-10T01:53:25;-3.10;99.90
49829;DHT22;35723;51.194;5.112;2024-01-10T01:55:52;-3.00;99.90
49829;DHT22;35723;51.194;5.112;2024-01-10T01:58:19;-3.10;99.90
49829;DHT22;35723;51.194;5.112;2024-01-10T02:00:46;-3.20;99.90
49829;DHT22;35723;51.194;5.112;2024-01-10T02:03:11;-2.90;99.90
49829;DHT22;35723;51.194;5.112;2024-01-10T02:05:37;-3.10;99.90
49829;DHT22;35723;51.194;5.112;2024-01-10T02:08:03;-3.10;99.90
49829;DHT22;35723;51.194;5.112;2024-01-10T02:10:29;-2.90;99.90
49829;DHT22;35723;51.194;5.112;2024-01-10T02:12:54;-2.90;99.90
49829;DHT22;35723;51.194;5.112;2024-01-10T02:15:20;-2.90;99.90
49829;DHT22;35723;51.194;5.112;2024-01-10T02:17:46;-2.80;99.90
49829;DHT22;35723;51.194;5.112;2024-01-10T02:20:13;-2.80;99.90
49829;DHT22;35723;51.194;5.112;2024-01-10T02:22:40;-2.70;99.90
49829;DHT22;35723;51.194;5.112;2024-01-10T02:25:14;-2.80;99.90
49829;DHT22;35723;51.194;5.112;2024-01-10T02:27:40;-2.70;99.90
49829;DHT22;35723;51.194;5.112;2024-01-10T02:30:07;-2.70;99.90
49829;DHT22;35723;51.194;5.112;2024-01-10T02:32:34;-2.70;99.90
49829;DHT22;35723;51.194;5.112;2024-01-10T02:35:00;-2.90;99.90
49829;DHT22;35723;51.194;5.112;2024-01-10T02:37:26;-3.10;99.90
49829;DHT22;35723;51.194;5.112;2024-01-10T02:39:52;-3.30;99.90
49829;DHT22;35723;51.194;5.112;2024-01-10T02:42:17;-3.30;99.90
49829;DHT22;35723;51.194;5.112;2024-01-10T02:44:43;-3.40;99.90
49829;DHT22;35723;51.194;5.112;2024-01-10T02:47:10;-3.40;99.90
49829;DHT22;35723;51.194;5.112;2024-01-10T02:49:36;-3.30;99.90
49829;DHT22;35723;51.194;5.112;2024-01-10T02:52:02;-3.30;99.90
49829;DHT22;35723;51.194;5.112;2024-01-10T02:54:28;-3.20;99.90
49829;DHT22;35723;51.194;5.112;2024-01-10T02:56:53;-3.40;99.90
49829;DHT22;35723;51.194;5.112;2024-01-10T02:59:19;-3.30;99.90
49829;DHT22;35723;51.194;5.112;2024-01-10T03:01:45;-3.20;99.90
49829;DHT22;35723;51.194;5.112;2024-01-10T03:04:10;-3.10;99.90
49829;DHT22;35723;51.194;5.112;2024-01-10T03:06:36;-3.30;99.90
49829;DHT22;35723;51.194;5.112;2024-01-10T03:09:02;-3.40;99.90
49829;DHT22;35723;51.194;5.112;2024-01-10T03:11:28;-3.40;99.90
49829;DHT22;35723;51.194;5.112;2024-01-10T03:14:08;-3.20;99.90
49829;DHT22;35723;51.194;5.112;2024-01-10T03:16:34;-3.00;99.90
49829;DHT22;35723;51.194;5.112;2024-01-10T03:19:00;-2.90;99.90
49829;DHT22;35723;51.194;5.112;2024-01-10T03:21:26;-2.70;99.90
49829;DHT22;35723;51.194;5.112;2024-01-10T03:24:01;-2.80;99.90
49829;DHT22;35723;51.194;5.112;2024-01-10T03:26:27;-3.00;99.90
49829;DHT22;35723;51.194;5.112;2024-01-10T03:28:53;-2.80;99.90
49829;DHT22;35723;51.194;5.112;2024-01-10T03:31:20;-2.90;99.90
49829;DHT22;35723;51.194;5.112;2024-01-10T03:33:46;-2.80;99.90
49829;DHT22;35723;51.194;5.112;2024-01-10T03:36:16;-2.90;99.90
49829;DHT22;35723;51.194;5.112;2024-01-10T03:38:42;-2.90;99.90
49829;DHT22;35723;51.194;5.112;2024-01-10T03:41:16;-3.00;99.90
49829;DHT22;35723;51.194;5.112;2024-01-10T03:43:42;-3.20;99.90
49829;DHT22;35723;51.194;5.112;2024-01-10T03:46:08;-3.20;99.90
49829;DHT22;35723;51.194;5.112;2024-01-10T03:48:34;-3.20;99.90
49829;DHT22;35723;51.194;5.112;2024-01-10T03:50:59;-3.10;99.90
49829;DHT22;35723;51.194;5.112;2024-01-10T03:53:26;-3.10;99.90
49829;DHT22;35723;51.194;5.112;2024-01-10T03:55:52;-3.20;99.90
49829;DHT22;35723;51.194;5.112;2024-01-10T03:58:17;-3.10;99.90
49829;DHT22;35723;51.194;5.112;2024-01-10T04:00:43;-3.20;99.90
49829;DHT22;35723;51.194;5.112;2024-01-10T04:03:09;-3.00;99.90
49829;DHT22;35723;51.194;5.112;2024-01-10T04:05:34;-3.30;99.90
49829;DHT22;35723;51.194;5.112;2024-01-10T04:08:00;-3.40;99.90
49829;DHT22;35723;51.194;5.112;2024-01-10T04:10:26;-3.30;99.90
49829;DHT22;35723;51.194;5.112;2024-01-10T04:12:51;-3.40;99.90
49829;DHT22;35723;51.194;5.112;2024-01-10T04:15:17;-3.60;99.90
49829;DHT22;35723;51.194;5.112;2024-01-10T04:17:45;-3.60;99.90
49829;DHT22;35723;51.194;5.112;2024-01-10T04:20:11;-3.70;99.90
49829;DHT22;35723;51.194;5.112;2024-01-10T04:22:37;-3.70;99.90
49829;DHT22;35723;51.194;5.112;2024-01-10T04:25:07;-3.70;99.90
49829;DHT22;35723;51.194;5.112;2024-01-10T04:27:33;-3.60;99.90
49829;DHT22;35723;51.194;5.112;2024-01-10T04:29:58;-3.50;99.90
49829;DHT22;35723;51.194;5.112;2024-01-10T04:32:24;-3.60;99.90
49829;DHT22;35723;51.194;5.112;2024-01-10T04:34:49;-3.40;99.90
49829;DHT22;35723;51.194;5.112;2024-01-10T04:37:15;-3.30;99.90
49829;DHT22;35723;51.194;5.112;2024-01-10T04:39:41;-3.30;99.90
49829;DHT22;35723;51.194;5.112;2024-01-10T04:42:08;-3.20;99.90
49829;DHT22;35723;51.194;5.112;2024-01-10T04:44:36;-3.30;99.90
49829;DHT22;35723;51.194;5.112;2024-01-10T04:47:01;-3.20;99.90
49829;DHT22;35723;51.194;5.112;2024-01-10T04:49:27;-3.30;99.90
49829;DHT22;35723;51.194;5.112;2024-01-10T04:51:53;-3.30;99.90
49829;DHT22;35723;51.194;5.112;2024-01-10T04:54:18;-3.20;99.90
49829;DHT22;35723;51.194;5.112;2024-01-10T04:56:44;-3.10;99.90
49829;DHT22;35723;51.194;5.112;2024-01-10T04:59:10;-3.30;99.90
49829;DHT22;35723;51.194;5.112;2024-01-10T05:01:35;-3.30;99.90
49829;DHT22;35723;51.194;5.112;2024-01-10T05:04:02;-3.30;99.90
49829;DHT22;35723;51.194;5.112;2024-01-10T05:06:28;-3.30;99.90
49829;DHT22;35723;51.194;5.112;2024-01-10T05:08:54;-3.20;99.90
49829;DHT22;35723;51.194;5.112;2024-01-10T05:11:23;-3.40;99.90
49829;DHT22;35723;51.194;5.112;2024-01-10T05:13:50;-3.70;99.90
49829;DHT22;35723;51.194;5.112;2024-01-10T05:16:16;-3.70;99.90
49829;DHT22;35723;51.194;5.112;2024-01-10T05:18:42;-3.70;99.90
49829;DHT22;35723;51.194;5.112;2024-01-10T05:21:08;-3.50;99.90
49829;DHT22;35723;51.194;5.112;2024-01-10T05:23:33;-3.40;99.90
49829;DHT22;35723;51.194;5.112;2024-01-10T05:25:59;-3.40;99.90
49829;DHT22;35723;51.194;5.112;2024-01-10T05:28:25;-3.30;99.90
49829;DHT22;35723;51.194;5.112;2024-01-10T05:30:50;-3.20;99.90
49829;DHT22;35723;51.194;5.112;2024-01-10T05:33:16;-3.20;99.90
49829;DHT22;35723;51.194;5.112;2024-01-10T05:35:42;-2.90;99.90
49829;DHT22;35723;51.194;5.112;2024-01-10T05:38:07;-2.90;99.90
49829;DHT22;35723;51.194;5.112;2024-01-10T05:40:33;-2.80;99.90
49829;DHT22;35723;51.194;5.112;2024-01-10T05:42:59;-2.70;99.90
49829;DHT22;35723;51.194;5.112;2024-01-10T05:45:25;-2.60;99.90
49829;DHT22;35723;51.194;5.112;2024-01-10T05:47:51;-2.70;99.90
49829;DHT22;35723;51.194;5.112;2024-01-10T05:50:17;-2.70;99.90
49829;DHT22;35723;51.194;5.112;2024-01-10T05:52:43;-2.70;99.90
49829;DHT22;35723;51.194;5.112;2024-01-10T05:55:09;-2.70;99.90
49829;DHT22;35723;51.194;5.112;2024-01-10T05:57:36;-2.90;99.90
49829;DHT22;35723;51.194;5.112;2024-01-10T06:00:02;-2.90;99.90
49829;DHT22;35723;51.194;5.112;2024-01-10T06:02:28;-3.00;99.90
49829;DHT22;35723;51.194;5.112;2024-01-10T06:04:54;-3.00;99.90
49829;DHT22;35723;51.194;5.112;2024-01-10T06:07:19;-2.90;99.90
49829;DHT22;35723;51.194;5.112;2024-01-10T06:09:46;-2.90;99.90
49829;DHT22;35723;51.194;5.112;2024-01-10T06:12:13;-2.90;99.90
49829;DHT22;35723;51.194;5.112;2024-01-10T06:14:39;-2.80;99.90
49829;DHT22;35723;51.194;5.112;2024-01-10T06:17:04;-2.80;99.90
49829;DHT22;35723;51.194;5.112;2024-01-10T06:19:30;-2.80;99.90
49829;DHT22;35723;51.194;5.112;2024-01-10T06:21:57;-2.80;99.90
49829;DHT22;35723;51.194;5.112;2024-01-10T06:24:22;-2.80;99.90
49829;DHT22;35723;51.194;5.112;2024-01-10T06:26:48;-2.60;99.90
49829;DHT22;35723;51.194;5.112;2024-01-10T06:29:15;-2.70;99.90
49829;DHT22;35723;51.194;5.112;2024-01-10T06:31:41;-2.90;99.90
49829;DHT22;35723;51.194;5.112;2024-01-10T06:34:08;-3.10;99.90
49829;DHT22;35723;51.194;5.112;2024-01-10T06:36:34;-3.30;99.90
49829;DHT22;35723;51.194;5.112;2024-01-10T06:38:59;-3.30;99.90
49829;DHT22;35723;51.194;5.112;2024-01-10T06:41:25;-3.50;99.90
49829;DHT22;35723;51.194;5.112;2024-01-10T06:43:51;-3.60;99.90
49829;DHT22;35723;51.194;5.112;2024-01-10T06:46:18;-3.50;99.90
49829;DHT22;35723;51.194;5.112;2024-01-10T06:48:43;-3.50;99.90
49829;DHT22;35723;51.194;5.112;2024-01-10T06:51:12;-3.20;99.90
49829;DHT22;35723;51.194;5.112;2024-01-10T06:53:38;-3.40;99.90
49829;DHT22;35723;51.194;5.112;2024-01-10T06:56:05;-3.50;99.90
49829;DHT22;35723;51.194;5.112;2024-01-10T06:58:31;-3.50;99.90
49829;DHT22;35723;51.194;5.112;2024-01-10T07:00:57;-3.60;99.90
49829;DHT22;35723;51.194;5.112;2024-01-10T07:03:22;-3.80;99.90
49829;DHT22;35723;51.194;5.112;2024-01-10T07:05:48;-3.90;99.90
49829;DHT22;35723;51.194;5.112;2024-01-10T07:08:14;-3.60;99.90
49829;DHT22;35723;51.194;5.112;2024-01-10T07:10:40;-3.70;99.90
49829;DHT22;35723;51.194;5.112;2024-01-10T07:13:05;-3.70;99.90
49829;DHT22;35723;51.194;5.112;2024-01-10T07:15:32;-3.80;99.90
49829;DHT22;35723;51.194;5.112;2024-01-10T07:17:57;-3.70;99.90
49829;DHT22;35723;51.194;5.112;2024-01-10T07:20:23;-3.50;99.90
49829;DHT22;35723;51.194;5.112;2024-01-10T07:22:50;-3.60;99.90
49829;DHT22;35723;51.194;5.112;2024-01-10T07:25:17;-3.40;99.90
49829;DHT22;35723;51.194;5.112;2024-01-10T07:27:43;-3.30;99.90
49829;DHT22;35723;51.194;5.112;2024-01-10T07:30:09;-3.20;99.90
49829;DHT22;35723;51.194;5.112;2024-01-10T07:32:45;-3.10;99.90
49829;DHT22;35723;51.194;5.112;2024-01-10T07:35:12;-3.10;99.90
49829;DHT22;35723;51.194;5.112;2024-01-10T07:37:39;-3.20;99.90
49829;DHT22;35723;51.194;5.112;2024-01-10T07:40:06;-3.10;99.90
49829;DHT22;35723;51.194;5.112;2024-01-10T07:42:33;-3.00;99.90
49829;DHT22;35723;51.194;5.112;2024-01-10T07:44:59;-2.90;99.90
49829;DHT22;35723;51.194;5.112;2024-01-10T07:47:25;-2.90;99.90
49829;DHT22;35723;51.194;5.112;2024-01-10T07:49:50;-2.80;99.90
49829;DHT22;35723;51.194;5.112;2024-01-10T07:52:16;-3.00;99.90
49829;DHT22;35723;51.194;5.112;2024-01-10T07:54:43;-3.00;99.90
49829;DHT22;35723;51.194;5.112;2024-01-10T07:57:09;-3.00;99.90
49829;DHT22;35723;51.194;5.112;2024-01-10T07:59:35;-3.00;99.90
49829;DHT22;35723;51.194;5.112;2024-01-10T08:02:01;-3.10;99.90
49829;DHT22;35723;51.194;5.112;2024-01-10T08:04:27;-3.20;99.90
49829;DHT22;35723;51.194;5.112;2024-01-10T08:06:54;-3.20;99.90
49829;DHT22;35723;51.194;5.112;2024-01-10T08:09:21;-3.30;99.90
49829;DHT22;35723;51.194;5.112;2024-01-10T08:11:47;-3.40;99.90
49829;DHT22;35723;51.194;5.112;2024-01-10T08:14:14;-3.50;99.90
49829;DHT22;35723;51.194;5.112;2024-01-10T08:16:39;-3.40;99.90
49829;DHT22;35723;51.194;5.112;2024-01-10T08:19:05;-3.30;99.90
49829;DHT22;35723;51.194;5.112;2024-01-10T08:21:30;-3.20;99.90
49829;DHT22;35723;51.194;5.112;2024-01-10T08:23:56;-3.00;99.90
49829;DHT22;35723;51.194;5.112;2024-01-10T08:26:23;-2.90;99.90
49829;DHT22;35723;51.194;5.112;2024-01-10T08:28:48;-2.90;99.90
49829;DHT22;35723;51.194;5.112;2024-01-10T08:31:16;-3.00;99.90
49829;DHT22;35723;51.194;5.112;2024-01-10T08:33:42;-2.80;99.90
49829;DHT22;35723;51.194;5.112;2024-01-10T08:36:08;-2.90;99.90
49829;DHT22;35723;51.194;5.112;2024-01-10T08:38:35;-2.90;99.90
49829;DHT22;35723;51.194;5.112;2024-01-10T08:41:01;-2.80;99.90
49829;DHT22;35723;51.194;5.112;2024-01-10T08:43:29;-3.00;99.90
49829;DHT22;35723;51.194;5.112;2024-01-10T08:45:54;-3.00;99.90
49829;DHT22;35723;51.194;5.112;2024-01-10T08:48:20;-2.80;99.90
49829;DHT22;35723;51.194;5.112;2024-01-10T08:50:45;-2.60;99.90
49829;DHT22;35723;51.194;5.112;2024-01-10T08:53:11;-2.70;99.90
49829;DHT22;35723;51.194;5.112;2024-01-10T08:55:37;-2.80;99.90
49829;DHT22;35723;51.194;5.112;2024-01-10T08:58:03;-3.00;99.90
49829;DHT22;35723;51.194;5.112;2024-01-10T09:00:29;-2.90;99.90
49829;DHT22;35723;51.194;5.112;2024-01-10T09:02:55;-3.00;99.90
49829;DHT22;35723;51.194;5.112;2024-01-10T09:05:21;-2.70;99.90
49829;DHT22;35723;51.194;5.112;2024-01-10T09:07:47;-2.70;99.90
49829;DHT22;35723;51.194;5.112;2024-01-10T09:10:13;-2.60;99.90
49829;DHT22;35723;51.194;5.112;2024-01-10T09:12:39;-3.00;99.90
49829;DHT22;35723;51.194;5.112;2024-01-10T09:15:08;-2.90;99.90
49829;DHT22;35723;51.194;5.112;2024-01-10T09:17:38;-2.80;99.90
49829;DHT22;35723;51.194;5.112;2024-01-10T09:20:04;-2.60;99.90
49829;DHT22;35723;51.194;5.112;2024-01-10T09:22:30;-2.30;99.90
49829;DHT22;35723;51.194;5.112;2024-01-10T09:24:55;-2.00;99.90
49829;DHT22;35723;51.194;5.112;2024-01-10T09:27:21;-1.80;99.90
49829;DHT22;35723;51.194;5.112;2024-01-10T09:29:48;-1.70;99.90
49829;DHT22;35723;51.194;5.112;2024-01-10T09:32:14;-1.90;99.90
49829;DHT22;35723;51.194;5.112;2024-01-10T09:34:39;-2.20;99.90
49829;DHT22;35723;51.194;5.112;2024-01-10T09:37:05;-2.10;99.90
49829;DHT22;35723;51.194;5.112;2024-01-10T09:39:31;-2.20;99.90
49829;DHT22;35723;51.194;5.112;2024-01-10T09:41:58;-2.30;99.90
49829;DHT22;35723;51.194;5.112;2024-01-10T09:44:24;-2.10;99.90
49829;DHT22;35723;51.194;5.112;2024-01-10T09:46:51;-2.10;99.90
49829;DHT22;35723;51.194;5.112;2024-01-10T09:49:18;-2.00;99.90
49829;DHT22;35723;51.194;5.112;2024-01-10T09:51:48;-2.00;99.90
49829;DHT22;35723;51.194;5.112;2024-01-10T09:54:15;-1.80;99.90
49829;DHT22;35723;51.194;5.112;2024-01-10T09:56:42;-1.70;99.90
49829;DHT22;35723;51.194;5.112;2024-01-10T09:59:10;-2.00;99.90
49829;DHT22;35723;51.194;5.112;2024-01-10T10:01:39;-1.90;99.90
49829;DHT22;35723;51.194;5.112;2024-01-10T10:04:05;-1.70;99.90
49829;DHT22;35723;51.194;5.112;2024-01-10T10:06:33;-1.60;99.90
49829;DHT22;35723;51.194;5.112;2024-01-10T10:08:59;-1.50;99.90
49829;DHT22;35723;51.194;5.112;2024-01-10T10:11:25;-1.70;99.90
49829;DHT22;35723;51.194;5.112;2024-01-10T10:13:51;-1.60;99.90
49829;DHT22;35723;51.194;5.112;2024-01-10T10:16:24;-1.60;99.90
49829;DHT22;35723;51.194;5.112;2024-01-10T10:18:53;-1.10;99.90
49829;DHT22;35723;51.194;5.112;2024-01-10T10:21:25;-1.30;99.90
49829;DHT22;35723;51.194;5.112;2024-01-10T10:23:59;-1.40;99.90
49829;DHT22;35723;51.194;5.112;2024-01-10T10:26:27;-1.50;99.90
49829;DHT22;35723;51.194;5.112;2024-01-10T10:28:52;-1.50;99.90
49829;DHT22;35723;51.194;5.112;2024-01-10T10:31:19;-1.60;99.90
49829;DHT22;35723;51.194;5.112;2024-01-10T10:33:46;-1.70;99.90
49829;DHT22;35723;51.194;5.112;2024-01-10T10:36:14;-1.70;99.90
49829;DHT22;35723;51.194;5.112;2024-01-10T10:38:40;-1.50;99.90
49829;DHT22;35723;51.194;5.112;2024-01-10T10:41:06;-1.10;99.90
49829;DHT22;35723;51.194;5.112;2024-01-10T10:43:39;-0.90;99.90
49829;DHT22;35723;51.194;5.112;2024-01-10T10:46:06;-0.60;99.90
49829;DHT22;35723;51.194;5.112;2024-01-10T10:48:35;-0.70;99.90
49829;DHT22;35723;51.194;5.112;2024-01-10T10:51:16;-1.00;99.90
49829;DHT22;35723;51.194;5.112;2024-01-10T10:53:43;-0.70;99.90
49829;DHT22;35723;51.194;5.112;2024-01-10T10:56:11;-0.80;99.90
49829;DHT22;35723;51.194;5.112;2024-01-10T10:58:42;-0.70;99.90
49829;DHT22;35723;51.194;5.112;2024-01-10T11:01:11;-0.40;99.90
49829;DHT22;35723;51.194;5.112;2024-01-10T11:03:38;-0.10;99.90
49829;DHT22;35723;51.194;5.112;2024-01-10T11:06:13;-0.30;99.90
49829;DHT22;35723;51.194;5.112;2024-01-10T11:08:43;-0.40;99.90
49829;DHT22;35723;51.194;5.112;2024-01-10T11:14:12;-0.30;99.90
49829;DHT22;35723;51.194;5.112;2024-01-10T11:20:13;0.20;99.90
49829;DHT22;35723;51.194;5.112;2024-01-10T11:25:27;-0.50;99.90
49829;DHT22;35723;51.194;5.112;2024-01-10T11:27:55;-0.40;99.90
49829;DHT22;35723;51.194;5.112;2024-01-10T11:30:36;-0.10;99.90
49829;DHT22;35723;51.194;5.112;2024-01-10T11:33:22;0.10;99.90
49829;DHT22;35723;51.194;5.112;2024-01-10T11:41:30;0.40;99.90
49829;DHT22;35723;51.194;5.112;2024-01-10T11:49:14;0.70;99.90
49829;DHT22;35723;51.194;5.112;2024-01-10T11:51:47;0.40;99.90
49829;DHT22;35723;51.194;5.112;2024-01-10T11:54:40;0.60;99.90
49829;DHT22;35723;51.194;5.112;2024-01-10T11:57:28;0.00;99.90
49829;DHT22;35723;51.194;5.112;2024-01-10T11:59:54;0.00;99.90
49829;DHT22;35723;51.194;5.112;2024-01-10T12:02:21;0.10;99.90
49829;DHT22;35723;51.194;5.112;2024-01-10T12:04:49;0.00;99.90
49829;DHT22;35723;51.194;5.112;2024-01-10T12:07:15;-0.20;99.90
49829;DHT22;35723;51.194;5.112;2024-01-10T12:09:41;0.10;99.90
49829;DHT22;35723;51.194;5.112;2024-01-10T12:12:07;0.30;99.90
49829;DHT22;35723;51.194;5.112;2024-01-10T12:14:34;0.20;99.90
49829;DHT22;35723;51.194;5.112;2024-01-10T12:17:00;0.10;99.90
49829;DHT22;35723;51.194;5.112;2024-01-10T12:19:27;0.10;99.90
49829;DHT22;35723;51.194;5.112;2024-01-10T12:21:52;0.10;99.90
49829;DHT22;35723;51.194;5.112;2024-01-10T12:24:19;0.20;99.90
49829;DHT22;35723;51.194;5.112;2024-01-10T12:26:48;0.10;99.90
49829;DHT22;35723;51.194;5.112;2024-01-10T12:29:18;0.40;99.90
49829;DHT22;35723;51.194;5.112;2024-01-10T12:31:45;0.70;99.90
49829;DHT22;35723;51.194;5.112;2024-01-10T12:34:11;1.00;99.90
49829;DHT22;35723;51.194;5.112;2024-01-10T12:36:37;1.00;99.90
49829;DHT22;35723;51.194;5.112;2024-01-10T12:39:03;1.10;99.90
49829;DHT22;35723;51.194;5.112;2024-01-10T12:41:32;1.30;99.90
49829;DHT22;35723;51.194;5.112;2024-01-10T12:43:59;1.40;99.60
49829;DHT22;35723;51.194;5.112;2024-01-10T12:46:27;1.20;99.90
49829;DHT22;35723;51.194;5.112;2024-01-10T12:49:04;1.10;99.90
49829;DHT22;35723;51.194;5.112;2024-01-10T12:51:31;1.00;99.90
49829;DHT22;35723;51.194;5.112;2024-01-10T12:53:58;1.00;99.90
49829;DHT22;35723;51.194;5.112;2024-01-10T12:56:24;0.80;99.90
49829;DHT22;35723;51.194;5.112;2024-01-10T12:58:50;0.80;99.90
49829;DHT22;35723;51.194;5.112;2024-01-10T13:01:16;1.30;99.90
49829;DHT22;35723;51.194;5.112;2024-01-10T13:03:42;1.70;99.90
49829;DHT22;35723;51.194;5.112;2024-01-10T13:06:09;1.50;99.70
49829;DHT22;35723;51.194;5.112;2024-01-10T13:08:35;1.60;99.90
49829;DHT22;35723;51.194;5.112;2024-01-10T13:11:01;1.90;99.90
49829;DHT22;35723;51.194;5.112;2024-01-10T13:13:27;1.60;99.80
49829;DHT22;35723;51.194;5.112;2024-01-10T13:15:53;1.60;99.90
49829;DHT22;35723;51.194;5.112;2024-01-10T13:18:18;1.50;99.90
49829;DHT22;35723;51.194;5.112;2024-01-10T13:20:45;1.60;99.80
49829;DHT22;35723;51.194;5.112;2024-01-10T13:23:11;1.40;99.90
49829;DHT22;35723;51.194;5.112;2024-01-10T13:25:37;1.40;99.80
49829;DHT22;35723;51.194;5.112;2024-01-10T13:28:04;1.40;99.50
49829;DHT22;35723;51.194;5.112;2024-01-10T13:30:30;1.40;99.90
49829;DHT22;35723;51.194;5.112;2024-01-10T13:32:56;1.80;99.90
49829;DHT22;35723;51.194;5.112;2024-01-10T13:35:23;1.50;99.40
49829;DHT22;35723;51.194;5.112;2024-01-10T13:37:49;1.50;99.50
49829;DHT22;35723;51.194;5.112;2024-01-10T13:40:15;1.50;99.80
49829;DHT22;35723;51.194;5.112;2024-01-10T13:42:42;1.70;99.90
49829;DHT22;35723;51.194;5.112;2024-01-10T13:45:09;1.60;99.50
49829;DHT22;35723;51.194;5.112;2024-01-10T13:47:38;1.90;99.80
49829;DHT22;35723;51.194;5.112;2024-01-10T13:50:05;2.10;99.20
49829;DHT22;35723;51.194;5.112;2024-01-10T13:52:32;1.50;99.20
49829;DHT22;35723;51.194;5.112;2024-01-10T13:54:58;1.20;99.80
49829;DHT22;35723;51.194;5.112;2024-01-10T13:57:24;1.10;99.90
49829;DHT22;35723;51.194;5.112;2024-01-10T13:59:49;0.80;99.90
49829;DHT22;35723;51.194;5.112;2024-01-10T14:02:15;0.70;99.90
49829;DHT22;35723;51.194;5.112;2024-01-10T14:04:42;0.70;99.90
49829;DHT22;35723;51.194;5.112;2024-01-10T14:07:07;0.80;99.90
49829;DHT22;35723;51.194;5.112;2024-01-10T14:09:33;0.90;99.90
49829;DHT22;35723;51.194;5.112;2024-01-10T14:12:00;1.20;99.90
49829;DHT22;35723;51.194;5.112;2024-01-10T14:14:26;1.10;99.90
49829;DHT22;35723;51.194;5.112;2024-01-10T14:16:51;1.30;99.90
49829;DHT22;35723;51.194;5.112;2024-01-10T14:19:17;1.30;99.90
49829;DHT22;35723;51.194;5.112;2024-01-10T14:21:43;1.20;99.90
49829;DHT22;35723;51.194;5.112;2024-01-10T14:24:09;1.20;99.90
49829;DHT22;35723;51.194;5.112;2024-01-10T14:26:35;1.20;99.90
49829;DHT22;35723;51.194;5.112;2024-01-10T14:29:01;1.10;99.90
49829;DHT22;35723;51.194;5.112;2024-01-10T14:31:26;1.10;99.90
49829;DHT22;35723;51.194;5.112;2024-01-10T14:33:52;0.80;99.90
49829;DHT22;35723;51.194;5.112;2024-01-10T14:36:18;0.90;99.90
49829;DHT22;35723;51.194;5.112;2024-01-10T14:42:08;1.10;99.90
49829;DHT22;35723;51.194;5.112;2024-01-10T14:44:38;1.10;99.90
49829;DHT22;35723;51.194;5.112;2024-01-10T14:47:05;0.90;99.90
49829;DHT22;35723;51.194;5.112;2024-01-10T14:52:50;0.90;99.90
49829;DHT22;35723;51.194;5.112;2024-01-10T14:55:16;0.80;99.90
49829;DHT22;35723;51.194;5.112;2024-01-10T15:04:40;0.50;99.90
49829;DHT22;35723;51.194;5.112;2024-01-10T15:07:06;0.70;99.90
49829;DHT22;35723;51.194;5.112;2024-01-10T15:13:14;0.80;99.90
49829;DHT22;35723;51.194;5.112;2024-01-10T15:19:09;1.30;99.90
49829;DHT22;35723;51.194;5.112;2024-01-10T15:21:35;1.50;99.90
49829;DHT22;35723;51.194;5.112;2024-01-10T15:24:00;1.60;99.90
49829;DHT22;35723;51.194;5.112;2024-01-10T15:26:26;1.30;99.90
49829;DHT22;35723;51.194;5.112;2024-01-10T15:28:52;1.20;99.90
49829;DHT22;35723;51.194;5.112;2024-01-10T15:31:21;1.10;99.90
49829;DHT22;35723;51.194;5.112;2024-01-10T15:33:47;1.00;99.90
49829;DHT22;35723;51.194;5.112;2024-01-10T15:36:13;1.20;99.90
49829;DHT22;35723;51.194;5.112;2024-01-10T15:38:39;0.90;99.90
49829;DHT22;35723;51.194;5.112;2024-01-10T15:41:07;1.30;99.90
49829;DHT22;35723;51.194;5.112;2024-01-10T15:43:33;1.50;99.90
49829;DHT22;35723;51.194;5.112;2024-01-10T15:45:58;1.60;99.90
49829;DHT22;35723;51.194;5.112;2024-01-10T15:48:24;1.60;99.90
49829;DHT22;35723;51.194;5.112;2024-01-10T15:50:53;1.80;99.90
49829;DHT22;35723;51.194;5.112;2024-01-10T15:53:20;1.70;99.90
49829;DHT22;35723;51.194;5.112;2024-01-10T15:55:46;1.50;99.90
49829;DHT22;35723;51.194;5.112;2024-01-10T15:58:12;1.30;99.90
49829;DHT22;35723;51.194;5.112;2024-01-10T16:00:38;1.20;99.90
49829;DHT22;35723;51.194;5.112;2024-01-10T16:03:04;1.20;99.90
49829;DHT22;35723;51.194;5.112;2024-01-10T16:05:32;1.30;99.90
49829;DHT22;35723;51.194;5.112;2024-01-10T16:07:57;0.90;99.90
49829;DHT22;35723;51.194;5.112;2024-01-10T16:10:23;1.40;99.90
49829;DHT22;35723;51.194;5.112;2024-01-10T16:12:54;1.40;99.90